Laurent Verva

Laurent Verva

Statistiques 2026

  • Courses courues : 42
  • Nb de victoires : -
  • Nb de places : 1
  • Écart gagnant : 143
  • Réussite à la gagne : -
  • Réussite à la place : 2%
Musique : 0a 8a 4a 6a 6a 0a 5a 5a Da 2a 9a 6a 5a Da 6a 0a 7a 4a
DateRangCatégorieAlloc.Dist.HippodromeChevalRed. KmSpé.
14/11/24 6 Trot 35 000€ 2 550m Reims Hercule de Bea 1'14"1 Attelé
24/11/24 7 Trot 18 000€ 2 575m Reims Karynndo Robsen 1'15"9 Attelé
24/11/24 2 Trot 18 000€ 2 550m Reims Kanza de Navary 1'16"5 Attelé
17/05/25 5 Trot 19 500€ 2 550m Reims Karynndo Robsen Attelé
09/06/25 7 Trot 12 000€ 2 550m Gournay En Bray Myrtille des Ecus Attelé
09/06/25 D Trot 12 000€ 2 550m Gournay En Bray Maya de la Besvre Attelé
09/06/25 3 Trot 15 500€ 2 575m Gournay En Bray Kamtchatka Attelé
09/06/25 D Trot 15 500€ 2 550m Gournay En Bray Kingswood Attelé
21/06/25 0 Trot 25 000€ 2 550m Reims Happy Hero Attelé
21/06/25 6 Trot 15 000€ 2 550m Reims Magicvega 1'17"1 Attelé
07/09/25 5 Trot 12 000€ 2 550m Gournay En Bray Marjo Attelé
07/09/25 0 Trot 13 500€ 2 550m Gournay En Bray Lisboa Syga Attelé
07/09/25 4 Trot 17 500€ 2 550m Gournay En Bray Idole du Moncel Attelé
10/11/25 5 Trot 35 000€ 2 550m Reims Hercule de Bea 1'14"3 Attelé lire

Après avoir attendu, a vivement progressé au dernier passage en face, soutenant assez bien son effort pour finir.

10/11/25 D Trot 18 000€ 2 550m Reims Le Vent du Houlet Attelé
23/11/25 5 Trot 18 000€ 2 550m Reims Label Daddy 1'16"9 Attelé
23/11/25 4 Trot 18 000€ 2 550m Reims My Queen Delo 1'17"1 Attelé
23/11/25 9 Trot 17 000€ 2 550m Reims Norwegian Island 1'19"2 Attelé
14/03/26 D Trot 27 000€ 2 550m Reims Haoussa de Vennes Attelé lire

A rapidement été disqualifié.

14/03/26 4 Trot 21 000€ 2 550m Reims My Queen Delo 1'16"0 Attelé
15/04/26 5 Trot 27 000€ 2 550m Reims Ivajale 1'14"3 Attelé
20/06/18 8 Trot 22 000€ 2 550m Reims Elliot d'Alci 1'15"3 Attelé
20/06/18 0 Trot 22 000€ 2 550m Reims Dryade des Salines Attelé
06/08/18 D Trot 11 000€ 2 550m Dieppe Filea de la Besvre Attelé
06/08/18 4 Trot 11 000€ 2 550m Dieppe Florette des Neuzy 1'24"7 Attelé
06/08/18 4 Trot 13 000€ 2 575m Dieppe Es Tu la Des Fanes 1'21"9 Attelé
06/08/18 0 Trot 32 000€ 2 550m Dieppe Charly d'Ommeel Attelé
06/08/18 5 Trot 32 000€ 2 550m Dieppe Aristo de Chanjac 1'19"7 Attelé
11/10/18 D Trot 32 000€ 2 550m Reims Aladin Pierji Attelé
11/10/18 4 Trot 24 000€ 2 575m Reims Au Temps Dubonheur 1'14"3 Attelé
25/11/18 3 Trot 15 000€ 2 575m Reims Emile de Jal 1'17"1 Attelé
25/11/18 4 Trot 15 000€ 2 575m Reims Esteve le Fol 1'16"7 Attelé
25/11/18 7 Trot 20 000€ 2 575m Reims Bilingue d'Alci 1'15"4 Attelé
17/03/19 3 Trot 15 000€ 2 550m Reims Etoile Dubonheur 1'16"8 Attelé
28/04/19 6 Trot 13 000€ 2 550m Reims Expert Majyc 1'16"8 Attelé
28/04/19 2 Trot 13 000€ 2 550m Reims Ebba Lotta 1'16"7 Attelé
28/04/19 9 Trot 15 000€ 2 575m Reims Daisy de la Folie 1'16"6 Attelé
28/04/19 3 Trot 14 000€ 2 550m Reims Farca Sly 1'17"3 Attelé
11/05/19 6 Trot 15 000€ 2 575m Reims Destrier d'Isques 1'15"1 Attelé
11/05/19 2 Trot 13 000€ 2 550m Reims Erromanga 1'17"1 Attelé
11/05/19 5 Trot 19 000€ 2 575m Reims Defi Calendes 1'14"6 Attelé
11/05/19 8 Trot 14 000€ 2 550m Reims Fraggle Rock 1'18"5 Attelé
11/05/19 9 Trot 15 000€ 2 550m Reims Emile de Jal 1'16"7 Attelé
23/05/19 4 Trot 16 000€ 2 550m Reims For Ever Mencourt 1'16"0 Attelé
23/05/19 0 Trot 16 000€ 2 550m Reims Falco d'Alci Attelé
23/05/19 4 Trot 20 000€ 2 550m Reims Elliot d'Alci 1'14"6 Attelé
19/06/19 6 Trot 21 000€ 2 550m Reims Fanny Cat 1'15"5 Attelé lire

N'a joué aucun rôle utile.

29/06/19 4 Trot 15 000€ 2 550m Reims Gold des Pres 1'16"0 Attelé
29/06/19 9 Trot 17 000€ 2 550m Reims Estime Unik 1'15"1 Attelé
29/06/19 7 Trot 19 000€ 2 550m Reims Buxus Calendes 1'14"4 Attelé